sensor_id;sensor_type;location;lat;lon;timestamp;pressure;altitude;pressure_sealevel;temperature;humidity
43838;BME280;65998;46.256;7.534;2023-04-26T00:02:14;86731.50;;;13.65;45.28
43838;BME280;65998;46.256;7.534;2023-04-26T00:04:40;86742.50;;;13.67;45.25
43838;BME280;65998;46.256;7.534;2023-04-26T00:07:06;86734.94;;;13.66;45.24
43838;BME280;65998;46.256;7.534;2023-04-26T00:09:32;86743.28;;;13.64;45.17
43838;BME280;65998;46.256;7.534;2023-04-26T00:11:58;86744.69;;;13.63;45.25
43838;BME280;65998;46.256;7.534;2023-04-26T00:14:24;86739.16;;;13.63;45.10
43838;BME280;65998;46.256;7.534;2023-04-26T00:16:50;86748.84;;;13.62;45.29
43838;BME280;65998;46.256;7.534;2023-04-26T00:19:16;86746.72;;;13.64;45.14
43838;BME280;65998;46.256;7.534;2023-04-26T00:21:42;86747.50;;;13.61;45.16
43838;BME280;65998;46.256;7.534;2023-04-26T00:24:08;86750.31;;;13.59;45.21
43838;BME280;65998;46.256;7.534;2023-04-26T00:26:34;86743.44;;;13.58;45.05
43838;BME280;65998;46.256;7.534;2023-04-26T00:29:03;86742.59;;;13.63;44.99
43838;BME280;65998;46.256;7.534;2023-04-26T00:31:29;86735.94;;;13.54;45.06
43838;BME280;65998;46.256;7.534;2023-04-26T00:33:55;86744.88;;;13.55;45.16
43838;BME280;65998;46.256;7.534;2023-04-26T00:36:21;86735.25;;;13.54;45.13
43838;BME280;65998;46.256;7.534;2023-04-26T00:38:47;86739.38;;;13.55;45.09
43838;BME280;65998;46.256;7.534;2023-04-26T00:41:13;86734.56;;;13.53;45.31
43838;BME280;65998;46.256;7.534;2023-04-26T00:43:39;86738.03;;;13.52;45.02
43838;BME280;65998;46.256;7.534;2023-04-26T00:46:07;86726.97;;;13.54;45.17
43838;BME280;65998;46.256;7.534;2023-04-26T00:48:33;86737.34;;;13.51;45.10
43838;BME280;65998;46.256;7.534;2023-04-26T00:51:01;86734.59;;;13.51;45.23
43838;BME280;65998;46.256;7.534;2023-04-26T00:53:27;86738.09;;;13.50;45.21
43838;BME280;65998;46.256;7.534;2023-04-26T00:55:53;86736.78;;;13.47;45.22
43838;BME280;65998;46.256;7.534;2023-04-26T00:58:19;86736.78;;;13.47;45.22
43838;BME280;65998;46.256;7.534;2023-04-26T01:00:45;86737.47;;;13.47;45.13
43838;BME280;65998;46.256;7.534;2023-04-26T01:03:11;86732.72;;;13.43;45.28
43838;BME280;65998;46.256;7.534;2023-04-26T01:05:37;86743.69;;;13.46;45.15
43838;BME280;65998;46.256;7.534;2023-04-26T01:08:03;86741.00;;;13.43;45.16
43838;BME280;65998;46.256;7.534;2023-04-26T01:10:31;86728.50;;;13.47;45.25
43838;BME280;65998;46.256;7.534;2023-04-26T01:12:59;86730.69;;;13.42;45.10
43838;BME280;65998;46.256;7.534;2023-04-26T01:15:26;86727.25;;;13.41;45.13
43838;BME280;65998;46.256;7.534;2023-04-26T01:17:52;86730.06;;;13.39;45.17
43838;BME280;65998;46.256;7.534;2023-04-26T01:20:18;86730.72;;;13.40;45.22
43838;BME280;65998;46.256;7.534;2023-04-26T01:22:44;86730.72;;;13.40;45.25
43838;BME280;65998;46.256;7.534;2023-04-26T01:25:12;86721.69;;;13.43;45.09
43838;BME280;65998;46.256;7.534;2023-04-26T01:27:38;86724.59;;;13.37;45.20
43838;BME280;65998;46.256;7.534;2023-04-26T01:30:05;86717.66;;;13.38;45.28
43838;BME280;65998;46.256;7.534;2023-04-26T01:32:31;86717.72;;;13.36;45.16
43838;BME280;65998;46.256;7.534;2023-04-26T01:34:58;86719.69;;;13.40;45.19
43838;BME280;65998;46.256;7.534;2023-04-26T01:37:24;86716.41;;;13.33;45.06
43838;BME280;65998;46.256;7.534;2023-04-26T01:39:50;86715.69;;;13.35;45.00
43838;BME280;65998;46.256;7.534;2023-04-26T01:42:15;86710.22;;;13.33;45.14
43838;BME280;65998;46.256;7.534;2023-04-26T01:44:41;86717.13;;;13.32;45.09
43838;BME280;65998;46.256;7.534;2023-04-26T01:47:07;86714.38;;;13.32;45.07
43838;BME280;65998;46.256;7.534;2023-04-26T01:49:33;86711.59;;;13.32;45.09
43838;BME280;65998;46.256;7.534;2023-04-26T01:52:00;86712.97;;;13.33;45.19
43838;BME280;65998;46.256;7.534;2023-04-26T01:54:26;86710.97;;;13.29;45.16
43838;BME280;65998;46.256;7.534;2023-04-26T01:56:52;86708.22;;;13.29;44.99
43838;BME280;65998;46.256;7.534;2023-04-26T01:59:18;86708.94;;;13.28;45.22
43838;BME280;65998;46.256;7.534;2023-04-26T02:01:43;86703.47;;;13.26;45.29
43838;BME280;65998;46.256;7.534;2023-04-26T02:04:09;86713.84;;;13.25;45.18
43838;BME280;65998;46.256;7.534;2023-04-26T02:06:35;86713.16;;;13.25;45.33
43838;BME280;65998;46.256;7.534;2023-04-26T02:09:01;86719.34;;;13.25;45.30
43838;BME280;65998;46.256;7.534;2023-04-26T02:11:27;86719.41;;;13.23;45.13
43838;BME280;65998;46.256;7.534;2023-04-26T02:13:53;86712.47;;;13.24;45.07
43838;BME280;65998;46.256;7.534;2023-04-26T02:16:18;86714.63;;;13.22;45.21
43838;BME280;65998;46.256;7.534;2023-04-26T02:18:44;86709.81;;;13.20;45.20
43838;BME280;65998;46.256;7.534;2023-04-26T02:21:10;86710.44;;;13.23;45.07
43838;BME280;65998;46.256;7.534;2023-04-26T02:23:37;86720.13;;;13.22;45.05
43838;BME280;65998;46.256;7.534;2023-04-26T02:26:03;86720.13;;;13.22;45.00
43838;BME280;65998;46.256;7.534;2023-04-26T02:28:29;86715.34;;;13.20;45.24
43838;BME280;65998;46.256;7.534;2023-04-26T02:30:55;86709.88;;;13.18;45.11
43838;BME280;65998;46.256;7.534;2023-04-26T02:33:21;86718.81;;;13.19;45.02
43838;BME280;65998;46.256;7.534;2023-04-26T02:35:47;86712.66;;;13.16;45.12
43838;BME280;65998;46.256;7.534;2023-04-26T02:38:13;86710.63;;;13.15;45.22
43838;BME280;65998;46.256;7.534;2023-04-26T02:40:39;86714.78;;;13.14;45.03
43838;BME280;65998;46.256;7.534;2023-04-26T02:43:05;86719.56;;;13.15;45.23
43838;BME280;65998;46.256;7.534;2023-04-26T02:45:30;86711.34;;;13.13;45.21
43838;BME280;65998;46.256;7.534;2023-04-26T02:47:56;86718.94;;;13.13;45.13
43838;BME280;65998;46.256;7.534;2023-04-26T02:50:22;86710.66;;;13.13;45.18
43838;BME280;65998;46.256;7.534;2023-04-26T02:52:48;86712.06;;;13.11;45.05
43838;BME280;65998;46.256;7.534;2023-04-26T02:55:13;86710.00;;;13.12;45.11
43838;BME280;65998;46.256;7.534;2023-04-26T02:57:39;86712.06;;;13.11;45.13
43838;BME280;65998;46.256;7.534;2023-04-26T03:00:06;86709.31;;;13.11;45.13
43838;BME280;65998;46.256;7.534;2023-04-26T03:02:32;86707.31;;;13.08;45.07
43838;BME280;65998;46.256;7.534;2023-04-26T03:04:58;86707.31;;;13.08;45.17
43838;BME280;65998;46.256;7.534;2023-04-26T03:07:24;86705.97;;;13.07;45.21
43838;BME280;65998;46.256;7.534;2023-04-26T03:09:50;86704.63;;;13.06;44.98
43838;BME280;65998;46.256;7.534;2023-04-26T03:12:15;86702.59;;;13.04;45.19
43838;BME280;65998;46.256;7.534;2023-04-26T03:14:41;86700.56;;;13.03;45.12
43838;BME280;65998;46.256;7.534;2023-04-26T03:17:07;86696.44;;;13.02;45.10
43838;BME280;65998;46.256;7.534;2023-04-26T03:19:33;86691.66;;;13.00;44.96
43838;BME280;65998;46.256;7.534;2023-04-26T03:21:59;86704.75;;;13.00;44.94
43838;BME280;65998;46.256;7.534;2023-04-26T03:24:24;86694.41;;;13.00;45.06
43838;BME280;65998;46.256;7.534;2023-04-26T03:26:50;86699.91;;;13.00;45.04
43838;BME280;65998;46.256;7.534;2023-04-26T03:29:16;86702.00;;;13.00;45.14
43838;BME280;65998;46.256;7.534;2023-04-26T03:31:42;86694.41;;;13.00;45.19
43838;BME280;65998;46.256;7.534;2023-04-26T03:34:08;86698.63;;;12.97;45.14
43838;BME280;65998;46.256;7.534;2023-04-26T03:36:34;86701.38;;;12.97;45.17
43838;BME280;65998;46.256;7.534;2023-04-26T03:38:59;86699.28;;;12.98;45.12
43838;BME280;65998;46.256;7.534;2023-04-26T03:41:25;86694.53;;;12.94;45.00
43838;BME280;65998;46.256;7.534;2023-04-26T03:43:51;86695.91;;;12.95;45.08
43838;BME280;65998;46.256;7.534;2023-04-26T03:46:17;86691.13;;;12.94;44.96
43838;BME280;65998;46.256;7.534;2023-04-26T03:48:42;86693.88;;;12.94;45.00
43838;BME280;65998;46.256;7.534;2023-04-26T03:51:08;86696.69;;;12.92;44.98
43838;BME280;65998;46.256;7.534;2023-04-26T03:53:34;86695.31;;;12.91;44.90
43838;BME280;65998;46.256;7.534;2023-04-26T03:56:00;86697.41;;;12.90;45.02
43838;BME280;65998;46.256;7.534;2023-04-26T03:58:26;86700.84;;;12.91;45.14
43838;BME280;65998;46.256;7.534;2023-04-26T04:00:55;86690.44;;;12.93;45.11
43838;BME280;65998;46.256;7.534;2023-04-26T04:03:21;86698.84;;;12.87;44.90
43838;BME280;65998;46.256;7.534;2023-04-26T04:05:47;86694.72;;;12.86;45.22
43838;BME280;65998;46.256;7.534;2023-04-26T04:08:13;86699.56;;;12.86;45.14
43838;BME280;65998;46.256;7.534;2023-04-26T04:10:39;86695.47;;;12.85;45.22
43838;BME280;65998;46.256;7.534;2023-04-26T04:13:04;86696.19;;;12.83;45.23
43838;BME280;65998;46.256;7.534;2023-04-26T04:15:30;86700.28;;;12.84;44.93
43838;BME280;65998;46.256;7.534;2023-04-26T04:17:56;86703.78;;;12.83;45.01
43838;BME280;65998;46.256;7.534;2023-04-26T04:20:22;86703.78;;;12.83;45.05
43838;BME280;65998;46.256;7.534;2023-04-26T04:22:47;86698.25;;;12.83;45.04
43838;BME280;65998;46.256;7.534;2023-04-26T04:25:13;86698.31;;;12.81;44.97
43838;BME280;65998;46.256;7.534;2023-04-26T04:27:39;86698.22;;;12.85;44.97
43838;BME280;65998;46.256;7.534;2023-04-26T04:30:06;86707.22;;;12.83;45.13
43838;BME280;65998;46.256;7.534;2023-04-26T04:32:32;86704.50;;;12.81;44.94
43838;BME280;65998;46.256;7.534;2023-04-26T04:34:58;86705.84;;;12.82;44.85
43838;BME280;65998;46.256;7.534;2023-04-26T04:37:24;86704.56;;;12.79;44.89
43838;BME280;65998;46.256;7.534;2023-04-26T04:39:54;86696.19;;;12.83;45.02
43838;BME280;65998;46.256;7.534;2023-04-26T04:42:19;86703.88;;;12.78;44.98
43838;BME280;65998;46.256;7.534;2023-04-26T04:44:46;86715.63;;;12.77;45.15
43838;BME280;65998;46.256;7.534;2023-04-26T04:47:12;86699.06;;;12.77;44.92
43838;BME280;65998;46.256;7.534;2023-04-26T04:49:38;86697.03;;;12.75;45.04
43838;BME280;65998;46.256;7.534;2023-04-26T04:52:04;86708.06;;;12.75;44.91
43838;BME280;65998;46.256;7.534;2023-04-26T04:54:30;86704.00;;;12.72;45.08
43838;BME280;65998;46.256;7.534;2023-04-26T04:56:56;86713.03;;;12.69;44.91
43838;BME280;65998;46.256;7.534;2023-04-26T04:59:23;86710.97;;;12.69;45.09
43838;BME280;65998;46.256;7.534;2023-04-26T05:01:49;86718.50;;;12.71;45.06
43838;BME280;65998;46.256;7.534;2023-04-26T05:04:16;86717.16;;;12.70;45.09
43838;BME280;65998;46.256;7.534;2023-04-26T05:06:41;86713.72;;;12.69;44.92
43838;BME280;65998;46.256;7.534;2023-04-26T05:09:08;86723.41;;;12.68;44.84
43838;BME280;65998;46.256;7.534;2023-04-26T05:11:34;86726.88;;;12.67;44.92
43838;BME280;65998;46.256;7.534;2023-04-26T05:14:00;86729.63;;;12.67;45.04
43838;BME280;65998;46.256;7.534;2023-04-26T05:16:26;86726.09;;;12.70;44.81
43838;BME280;65998;46.256;7.534;2023-04-26T05:18:52;86729.53;;;12.71;45.01
43838;BME280;65998;46.256;7.534;2023-04-26T05:21:20;86734.38;;;12.70;44.75
43838;BME280;65998;46.256;7.534;2023-04-26T05:23:46;86734.41;;;12.68;44.79
43838;BME280;65998;46.256;7.534;2023-04-26T05:26:14;86737.09;;;12.72;44.89
43838;BME280;65998;46.256;7.534;2023-04-26T05:28:41;86740.66;;;12.67;44.74
43838;BME280;65998;46.256;7.534;2023-04-26T05:31:08;86744.03;;;12.69;44.64
43838;BME280;65998;46.256;7.534;2023-04-26T05:33:34;86743.41;;;12.67;44.47
43838;BME280;65998;46.256;7.534;2023-04-26T05:36:00;86743.41;;;12.67;44.70
43838;BME280;65998;46.256;7.534;2023-04-26T05:38:27;86740.03;;;12.64;44.92
43838;BME280;65998;46.256;7.534;2023-04-26T05:40:53;86746.25;;;12.63;44.63
43838;BME280;65998;46.256;7.534;2023-04-26T05:43:19;86749.69;;;12.63;44.87
43838;BME280;65998;46.256;7.534;2023-04-26T05:45:55;86746.13;;;12.69;44.62
43838;BME280;65998;46.256;7.534;2023-04-26T05:48:22;86744.13;;;12.65;44.59
43838;BME280;65998;46.256;7.534;2023-04-26T05:50:49;86752.44;;;12.63;44.73
43838;BME280;65998;46.256;7.534;2023-04-26T05:53:16;86753.16;;;12.62;45.10
43838;BME280;65998;46.256;7.534;2023-04-26T05:55:42;86753.94;;;12.58;44.92
43838;BME280;65998;46.256;7.534;2023-04-26T05:58:09;86753.91;;;12.60;44.71
43838;BME280;65998;46.256;7.534;2023-04-26T06:00:35;86761.44;;;12.62;44.59
43838;BME280;65998;46.256;7.534;2023-04-26T06:03:02;86762.19;;;12.58;44.74
43838;BME280;65998;46.256;7.534;2023-04-26T06:05:28;86758.09;;;12.57;44.81
43838;BME280;65998;46.256;7.534;2023-04-26T06:07:54;86761.53;;;12.58;44.79
43838;BME280;65998;46.256;7.534;2023-04-26T06:10:20;86760.16;;;12.57;44.91
43838;BME280;65998;46.256;7.534;2023-04-26T06:12:46;86758.81;;;12.56;44.96
43838;BME280;65998;46.256;7.534;2023-04-26T06:15:11;86757.44;;;12.55;45.20
43838;BME280;65998;46.256;7.534;2023-04-26T06:17:37;86760.88;;;12.55;44.77
43838;BME280;65998;46.256;7.534;2023-04-26T06:20:03;86765.72;;;12.55;44.71
43838;BME280;65998;46.256;7.534;2023-04-26T06:22:30;86771.31;;;12.51;44.89
43838;BME280;65998;46.256;7.534;2023-04-26T06:24:55;86773.34;;;12.52;44.94
43838;BME280;65998;46.256;7.534;2023-04-26T06:27:21;86778.19;;;12.52;44.85
43838;BME280;65998;46.256;7.534;2023-04-26T06:29:47;86780.25;;;12.51;45.09
43838;BME280;65998;46.256;7.534;2023-04-26T06:32:13;86777.56;;;12.49;45.09
43838;BME280;65998;46.256;7.534;2023-04-26T06:34:38;86776.88;;;12.49;45.01
43838;BME280;65998;46.256;7.534;2023-04-26T06:37:04;86776.88;;;12.49;44.78
43838;BME280;65998;46.256;7.534;2023-04-26T06:39:30;86781.69;;;12.48;45.14
43838;BME280;65998;46.256;7.534;2023-04-26T06:41:56;86778.28;;;12.45;44.85
43838;BME280;65998;46.256;7.534;2023-04-26T06:44:22;86790.00;;;12.46;45.11
43838;BME280;65998;46.256;7.534;2023-04-26T06:46:48;86780.31;;;12.47;45.17
43838;BME280;65998;46.256;7.534;2023-04-26T06:49:13;86780.31;;;12.47;45.02
43838;BME280;65998;46.256;7.534;2023-04-26T06:51:39;86770.06;;;12.43;45.04
43838;BME280;65998;46.256;7.534;2023-04-26T06:54:05;86767.94;;;12.46;44.77
43838;BME280;65998;46.256;7.534;2023-04-26T06:56:31;86768.66;;;12.44;44.76
43838;BME280;65998;46.256;7.534;2023-04-26T06:58:58;86771.38;;;12.46;44.94
43838;BME280;65998;46.256;7.534;2023-04-26T07:01:25;86764.56;;;12.43;45.24
43838;BME280;65998;46.256;7.534;2023-04-26T07:03:51;86774.94;;;12.41;44.90
43838;BME280;65998;46.256;7.534;2023-04-26T07:06:17;86766.63;;;12.43;44.72
43838;BME280;65998;46.256;7.534;2023-04-26T07:08:42;86764.59;;;12.41;44.80
43838;BME280;65998;46.256;7.534;2023-04-26T07:11:09;86769.31;;;12.47;44.77
43838;BME280;65998;46.256;7.534;2023-04-26T07:13:35;86762.50;;;12.42;45.05
43838;BME280;65998;46.256;7.534;2023-04-26T07:16:01;86763.28;;;12.38;45.03
43838;BME280;65998;46.256;7.534;2023-04-26T07:18:26;86766.03;;;12.38;45.18
43838;BME280;65998;46.256;7.534;2023-04-26T07:20:52;86765.28;;;12.42;44.96
43838;BME280;65998;46.256;7.534;2023-04-26T07:23:18;86767.34;;;12.41;44.90
43838;BME280;65998;46.256;7.534;2023-04-26T07:25:44;86757.09;;;12.38;44.90
43838;BME280;65998;46.256;7.534;2023-04-26T07:28:10;86760.53;;;12.38;45.08
43838;BME280;65998;46.256;7.534;2023-04-26T07:30:36;86758.47;;;12.37;45.19
43838;BME280;65998;46.256;7.534;2023-04-26T07:33:02;86768.09;;;12.38;45.02
43838;BME280;65998;46.256;7.534;2023-04-26T07:35:27;86760.56;;;12.36;44.88
43838;BME280;65998;46.256;7.534;2023-04-26T07:37:53;86748.13;;;12.37;45.05
43838;BME280;65998;46.256;7.534;2023-04-26T07:40:19;86753.69;;;12.35;45.14
43838;BME280;65998;46.256;7.534;2023-04-26T07:42:45;86752.97;;;12.37;45.03
43838;BME280;65998;46.256;7.534;2023-04-26T07:45:11;86745.38;;;12.37;44.96
43838;BME280;65998;46.256;7.534;2023-04-26T07:47:37;86743.38;;;12.34;44.81
43838;BME280;65998;46.256;7.534;2023-04-26T07:50:04;86743.31;;;12.38;45.00
43838;BME280;65998;46.256;7.534;2023-04-26T07:52:29;86738.56;;;12.34;44.92
43838;BME280;65998;46.256;7.534;2023-04-26T07:54:55;86740.63;;;12.34;45.10
43838;BME280;65998;46.256;7.534;2023-04-26T07:57:21;86736.53;;;12.33;44.97
43838;BME280;65998;46.256;7.534;2023-04-26T07:59:47;86734.41;;;12.35;44.98
43838;BME280;65998;46.256;7.534;2023-04-26T08:02:13;86734.38;;;12.37;44.76
43838;BME280;65998;46.256;7.534;2023-04-26T08:04:42;86737.75;;;12.40;45.02
43838;BME280;65998;46.256;7.534;2023-04-26T08:07:11;86736.47;;;12.35;45.00
43838;BME280;65998;46.256;7.534;2023-04-26T08:09:37;86728.94;;;12.33;44.76
43838;BME280;65998;46.256;7.534;2023-04-26T08:12:03;86739.19;;;12.37;44.71
43838;BME280;65998;46.256;7.534;2023-04-26T08:14:29;86728.97;;;12.31;45.05
43838;BME280;65998;46.256;7.534;2023-04-26T08:16:55;86736.47;;;12.35;44.98
43838;BME280;65998;46.256;7.534;2023-04-26T08:19:21;86736.47;;;12.35;45.03
43838;BME280;65998;46.256;7.534;2023-04-26T08:21:46;86732.38;;;12.34;45.00
43838;BME280;65998;46.256;7.534;2023-04-26T08:24:12;86733.78;;;12.33;44.81
43838;BME280;65998;46.256;7.534;2023-04-26T08:26:38;86728.97;;;12.31;44.95
43838;BME280;65998;46.256;7.534;2023-04-26T08:29:04;86728.31;;;12.31;44.86
43838;BME280;65998;46.256;7.534;2023-04-26T08:31:30;86731.09;;;12.29;44.78
43838;BME280;65998;46.256;7.534;2023-04-26T08:33:56;86730.38;;;12.30;44.86
43838;BME280;65998;46.256;7.534;2023-04-26T08:36:21;86733.84;;;12.29;44.85
43838;BME280;65998;46.256;7.534;2023-04-26T08:38:47;86724.81;;;12.32;44.99
43838;BME280;65998;46.256;7.534;2023-04-26T08:41:13;86732.41;;;12.32;45.08
43838;BME280;65998;46.256;7.534;2023-04-26T08:43:40;86737.97;;;12.30;45.00
43838;BME280;65998;46.256;7.534;2023-04-26T08:46:09;86731.69;;;12.33;44.77
43838;BME280;65998;46.256;7.534;2023-04-26T08:48:36;86735.16;;;12.32;44.87
43838;BME280;65998;46.256;7.534;2023-04-26T08:51:02;86735.84;;;12.32;44.88
43838;BME280;65998;46.256;7.534;2023-04-26T08:53:30;86733.81;;;12.31;45.14
43838;BME280;65998;46.256;7.534;2023-04-26T08:55:58;86728.25;;;12.33;44.90
43838;BME280;65998;46.256;7.534;2023-04-26T08:58:25;86732.47;;;12.30;44.88
43838;BME280;65998;46.256;7.534;2023-04-26T09:00:51;86728.97;;;12.31;44.97
43838;BME280;65998;46.256;7.534;2023-04-26T09:03:17;86722.84;;;12.29;45.08
43838;BME280;65998;46.256;7.534;2023-04-26T09:05:43;86726.25;;;12.29;45.06
43838;BME280;65998;46.256;7.534;2023-04-26T09:08:16;86725.47;;;12.35;44.89
43838;BME280;65998;46.256;7.534;2023-04-26T09:10:43;86727.59;;;12.32;44.88
43838;BME280;65998;46.256;7.534;2023-04-26T09:13:09;86731.09;;;12.29;44.96
43838;BME280;65998;46.256;7.534;2023-04-26T09:15:34;86733.22;;;12.26;45.05
43838;BME280;65998;46.256;7.534;2023-04-26T09:18:20;86712.38;;;12.35;44.82
43838;BME280;65998;46.256;7.534;2023-04-26T09:21:01;86715.13;;;12.35;44.94
43838;BME280;65998;46.256;7.534;2023-04-26T09:23:27;86720.84;;;12.25;45.21
43838;BME280;65998;46.256;7.534;2023-04-26T09:25:53;86716.66;;;12.28;44.92
43838;BME280;65998;46.256;7.534;2023-04-26T09:28:21;86728.34;;;12.29;44.91
43838;BME280;65998;46.256;7.534;2023-04-26T09:30:47;86721.47;;;12.28;45.19
43838;BME280;65998;46.256;7.534;2023-04-26T09:33:14;86726.94;;;12.30;45.14
43838;BME280;65998;46.256;7.534;2023-04-26T09:35:41;86718.69;;;12.30;45.23
43838;BME280;65998;46.256;7.534;2023-04-26T09:38:10;86725.50;;;12.33;45.15
43838;BME280;65998;46.256;7.534;2023-04-26T09:40:38;86728.25;;;12.33;45.03
43838;BME280;65998;46.256;7.534;2023-04-26T09:43:06;86722.75;;;12.33;44.93
43838;BME280;65998;46.256;7.534;2023-04-26T09:45:51;86715.13;;;12.35;44.99
43838;BME280;65998;46.256;7.534;2023-04-26T09:48:25;86721.31;;;12.36;44.77
43838;BME280;65998;46.256;7.534;2023-04-26T09:50:53;86717.91;;;12.33;44.73
43838;BME280;65998;46.256;7.534;2023-04-26T09:53:39;86713.72;;;12.36;44.94
43838;BME280;65998;46.256;7.534;2023-04-26T09:56:09;86710.97;;;12.36;44.96
43838;BME280;65998;46.256;7.534;2023-04-26T09:58:56;86707.50;;;12.38;44.86
43838;BME280;65998;46.256;7.534;2023-04-26T10:01:23;86703.47;;;12.33;45.00
43838;BME280;65998;46.256;7.534;2023-04-26T10:03:50;86699.34;;;12.32;44.75
43838;BME280;65998;46.256;7.534;2023-04-26T10:06:16;86700.72;;;12.33;45.11
43838;BME280;65998;46.256;7.534;2023-04-26T10:08:43;86692.50;;;12.31;44.90
43838;BME280;65998;46.256;7.534;2023-04-26T10:11:09;86696.56;;;12.34;45.07
43838;BME280;65998;46.256;7.534;2023-04-26T10:13:35;86701.38;;;12.33;44.99
43838;BME280;65998;46.256;7.534;2023-04-26T10:16:02;86699.97;;;12.34;45.12
43838;BME280;65998;46.256;7.534;2023-04-26T10:18:30;86702.66;;;12.38;44.88
43838;BME280;65998;46.256;7.534;2023-04-26T10:20:59;86705.41;;;12.38;45.10
43838;BME280;65998;46.256;7.534;2023-04-26T10:23:26;86703.41;;;12.35;44.89
43838;BME280;65998;46.256;7.534;2023-04-26T10:25:53;86694.44;;;12.36;45.08
43838;BME280;65998;46.256;7.534;2023-04-26T10:31:13;86686.22;;;12.34;44.87
43838;BME280;65998;46.256;7.534;2023-04-26T10:33:39;86693.06;;;12.35;45.17
43838;BME280;65998;46.256;7.534;2023-04-26T10:36:07;86699.19;;;12.40;44.91
43838;BME280;65998;46.256;7.534;2023-04-26T10:39:18;86690.16;;;12.43;45.08
43838;BME280;65998;46.256;7.534;2023-04-26T10:41:44;86687.53;;;12.37;44.96
43838;BME280;65998;46.256;7.534;2023-04-26T10:47:00;86686.13;;;12.38;44.97
43838;BME280;65998;46.256;7.534;2023-04-26T10:49:26;86684.78;;;12.37;44.91
43838;BME280;65998;46.256;7.534;2023-04-26T10:52:11;86691.47;;;12.46;45.05
43838;BME280;65998;46.256;7.534;2023-04-26T10:54:45;86682.50;;;12.46;44.83
43838;BME280;65998;46.256;7.534;2023-04-26T10:57:11;86677.09;;;12.42;44.87
43838;BME280;65998;46.256;7.534;2023-04-26T10:59:38;86683.28;;;12.42;44.75
43838;BME280;65998;46.256;7.534;2023-04-26T11:02:04;86675.06;;;12.40;45.22
43838;BME280;65998;46.256;7.534;2023-04-26T11:04:51;86669.34;;;12.51;44.80
43838;BME280;65998;46.256;7.534;2023-04-26T11:07:35;86667.94;;;12.52;44.70
43838;BME280;65998;46.256;7.534;2023-04-26T11:10:01;86677.00;;;12.46;44.85
43838;BME280;65998;46.256;7.534;2023-04-26T11:12:27;86670.78;;;12.47;45.13
43838;BME280;65998;46.256;7.534;2023-04-26T11:14:53;86671.44;;;12.48;44.89
43838;BME280;65998;46.256;7.534;2023-04-26T11:17:18;86670.75;;;12.50;44.97
43838;BME280;65998;46.256;7.534;2023-04-26T11:19:45;86665.16;;;12.54;45.12
43838;BME280;65998;46.256;7.534;2023-04-26T11:22:11;86664.50;;;12.51;45.04
43838;BME280;65998;46.256;7.534;2023-04-26T11:24:37;86673.47;;;12.52;45.04
43838;BME280;65998;46.256;7.534;2023-04-26T11:27:10;86667.13;;;12.57;44.96
43838;BME280;65998;46.256;7.534;2023-04-26T11:29:37;86667.13;;;12.57;44.88
43838;BME280;65998;46.256;7.534;2023-04-26T11:32:03;86670.56;;;12.58;44.80
43838;BME280;65998;46.256;7.534;2023-04-26T11:34:32;86657.50;;;12.56;44.82
43838;BME280;65998;46.256;7.534;2023-04-26T11:36:58;86660.22;;;12.58;44.61
43838;BME280;65998;46.256;7.534;2023-04-26T11:39:27;86664.97;;;12.62;44.79
43838;BME280;65998;46.256;7.534;2023-04-26T11:42:06;86666.22;;;12.67;44.90
43838;BME280;65998;46.256;7.534;2023-04-26T11:44:33;86667.72;;;12.62;44.81
43838;BME280;65998;46.256;7.534;2023-04-26T11:47:02;86664.88;;;12.66;44.99
43838;BME280;65998;46.256;7.534;2023-04-26T11:49:30;86664.88;;;12.66;44.63
43838;BME280;65998;46.256;7.534;2023-04-26T11:51:56;86664.91;;;12.64;44.93
43838;BME280;65998;46.256;7.534;2023-04-26T11:54:30;86665.47;;;12.70;44.73
43838;BME280;65998;46.256;7.534;2023-04-26T11:57:00;86662.03;;;12.70;45.13
43838;BME280;65998;46.256;7.534;2023-04-26T11:59:27;86661.34;;;12.69;44.61
43838;BME280;65998;46.256;7.534;2023-04-26T12:01:55;86668.16;;;12.72;44.94
43838;BME280;65998;46.256;7.534;2023-04-26T12:04:28;86661.22;;;12.75;44.84
43838;BME280;65998;46.256;7.534;2023-04-26T12:06:55;86664.72;;;12.72;44.87
43838;BME280;65998;46.256;7.534;2023-04-26T12:09:28;86666.00;;;12.77;44.78
43838;BME280;65998;46.256;7.534;2023-04-26T12:11:58;86655.66;;;12.77;44.61
43838;BME280;65998;46.256;7.534;2023-04-26T12:14:36;86659.06;;;12.78;44.85
43838;BME280;65998;46.256;7.534;2023-04-26T12:17:03;86657.09;;;12.74;44.69
43838;BME280;65998;46.256;7.534;2023-04-26T12:19:33;86659.03;;;12.80;44.82
43838;BME280;65998;46.256;7.534;2023-04-26T12:21:59;86661.88;;;12.76;44.64
43838;BME280;65998;46.256;7.534;2023-04-26T12:24:27;86654.19;;;12.81;44.71
43838;BME280;65998;46.256;7.534;2023-04-26T12:26:53;86659.13;;;12.76;44.86
43838;BME280;65998;46.256;7.534;2023-04-26T12:29:19;86659.06;;;12.78;44.45
43838;BME280;65998;46.256;7.534;2023-04-26T12:31:45;86661.06;;;12.82;44.81
43838;BME280;65998;46.256;7.534;2023-04-26T12:34:12;86658.34;;;12.79;44.80
43838;BME280;65998;46.256;7.534;2023-04-26T12:36:39;86656.19;;;12.84;44.82
43838;BME280;65998;46.256;7.534;2023-04-26T12:39:06;86653.47;;;12.82;44.90
43838;BME280;65998;46.256;7.534;2023-04-26T12:41:31;86664.44;;;12.84;44.59
43838;BME280;65998;46.256;7.534;2023-04-26T12:43:57;86653.41;;;12.84;44.69
43838;BME280;65998;46.256;7.534;2023-04-26T12:46:23;86653.41;;;12.84;44.81
43838;BME280;65998;46.256;7.534;2023-04-26T12:48:49;86658.22;;;12.86;44.58
43838;BME280;65998;46.256;7.534;2023-04-26T12:51:15;86658.88;;;12.86;44.64
43838;BME280;65998;46.256;7.534;2023-04-26T12:53:40;86656.81;;;12.87;44.63
43838;BME280;65998;46.256;7.534;2023-04-26T12:56:06;86647.13;;;12.88;44.84
43838;BME280;65998;46.256;7.534;2023-04-26T12:58:32;86650.56;;;12.88;44.76
43838;BME280;65998;46.256;7.534;2023-04-26T13:00:58;86656.03;;;12.90;44.75
43838;BME280;65998;46.256;7.534;2023-04-26T13:03:24;86653.94;;;12.91;44.55
43838;BME280;65998;46.256;7.534;2023-04-26T13:05:49;86653.22;;;12.92;44.59